createdAt,value
2023-04-17T00:01:13.866Z,64.84
2023-04-17T00:04:03.300Z,64.51
2023-04-17T00:06:54.453Z,64.26
2023-04-17T00:09:43.788Z,63.85
2023-04-17T00:12:33.118Z,64.13
2023-04-17T00:15:22.394Z,63.63
2023-04-17T00:18:11.789Z,63.85
2023-04-17T00:21:01.225Z,63.73
2023-04-17T00:23:52.147Z,63.16
2023-04-17T00:26:41.897Z,63.01
2023-04-17T00:29:32.797Z,63.31
2023-04-17T00:32:23.003Z,62.60
2023-04-17T00:35:12.571Z,62.23
2023-04-17T00:38:02.056Z,61.91
2023-04-17T00:40:52.807Z,62.02
2023-04-17T00:43:42.800Z,61.44
2023-04-17T00:46:32.684Z,61.64
2023-04-17T00:49:22.838Z,61.20
2023-04-17T00:52:12.322Z,60.84
2023-04-17T00:55:01.561Z,61.03
2023-04-17T00:57:52.729Z,61.14
2023-04-17T01:00:41.993Z,61.04
2023-04-17T01:03:34.332Z,60.86
2023-04-17T01:06:23.699Z,59.87
2023-04-17T01:09:15.188Z,60.34
2023-04-17T01:12:22.397Z,60.40
2023-04-17T01:15:13.583Z,60.82
2023-04-17T01:18:03.784Z,60.87
2023-04-17T01:20:53.060Z,60.07
2023-04-17T01:23:46.519Z,60.14
2023-04-17T01:26:38.415Z,60.17
2023-04-17T01:29:27.914Z,60.31
2023-04-17T01:32:19.002Z,60.44
2023-04-17T01:35:09.208Z,61.00
2023-04-17T01:37:58.403Z,60.98
2023-04-17T01:40:47.753Z,61.09
2023-04-17T01:43:40.884Z,61.09
2023-04-17T01:46:30.183Z,61.37
2023-04-17T01:49:19.772Z,61.16
2023-04-17T01:52:09.078Z,60.90
2023-04-17T01:54:58.487Z,61.05
2023-04-17T01:57:48.550Z,61.39
2023-04-17T02:00:39.314Z,61.51
2023-04-17T02:03:28.649Z,61.62
2023-04-17T02:06:18.019Z,61.63
2023-04-17T02:09:07.413Z,61.67
2023-04-17T02:12:01.866Z,62.00
2023-04-17T02:14:51.055Z,61.29
2023-04-17T02:17:41.770Z,61.32
2023-04-17T02:20:33.212Z,61.77
2023-04-17T02:23:22.561Z,62.14
2023-04-17T02:26:11.978Z,62.11
2023-04-17T02:29:01.499Z,62.21
2023-04-17T02:31:50.924Z,62.83
2023-04-17T02:34:41.721Z,62.68
2023-04-17T02:37:31.179Z,62.90
2023-04-17T02:40:20.837Z,63.08
2023-04-17T02:43:13.362Z,63.18
2023-04-17T02:46:02.625Z,63.50
2023-04-17T02:48:52.394Z,63.79
2023-04-17T02:51:45.027Z,64.13
2023-04-17T02:54:34.478Z,64.39
2023-04-17T02:57:24.514Z,64.27
2023-04-17T03:00:15.332Z,64.61
2023-04-17T03:03:05.078Z,64.79
2023-04-17T03:05:54.542Z,64.81
2023-04-17T03:08:45.359Z,65.20
2023-04-17T03:11:34.681Z,65.41
2023-04-17T03:14:23.988Z,65.86
2023-04-17T03:17:15.265Z,66.09
2023-04-17T03:20:06.163Z,66.21
2023-04-17T03:22:55.959Z,66.22
2023-04-17T03:25:46.691Z,66.51
2023-04-17T03:28:37.375Z,66.52
2023-04-17T03:31:28.093Z,66.67
2023-04-17T03:34:18.113Z,66.76
2023-04-17T03:37:07.468Z,66.98
2023-04-17T03:39:57.151Z,67.02
2023-04-17T03:42:49.674Z,66.91
2023-04-17T03:45:39.010Z,67.27
2023-04-17T03:48:28.297Z,67.23
2023-04-17T03:51:18.030Z,67.28
2023-04-17T03:54:08.434Z,67.03
2023-04-17T03:56:57.729Z,67.20
2023-04-17T03:59:48.893Z,67.18
2023-04-17T04:02:38.387Z,67.34
2023-04-17T04:05:28.141Z,67.36
2023-04-17T04:08:18.613Z,67.74
2023-04-17T04:11:11.831Z,67.80
2023-04-17T04:14:02.054Z,68.01
2023-04-17T04:16:53.017Z,67.88
2023-04-17T04:19:43.679Z,67.76
2023-04-17T04:22:34.938Z,68.01
2023-04-17T04:25:25.897Z,68.25
2023-04-17T04:28:31.686Z,67.83
2023-04-17T04:31:22.184Z,68.21
2023-04-17T04:34:13.534Z,68.09
2023-04-17T04:37:03.461Z,68.21
2023-04-17T04:40:12.613Z,68.21
2023-04-17T04:43:04.589Z,68.65
2023-04-17T04:46:00.490Z,68.56
2023-04-17T04:48:53.615Z,68.69
2023-04-17T04:51:44.516Z,68.65
2023-04-17T04:54:33.857Z,68.35
2023-04-17T04:57:24.643Z,68.73
2023-04-17T05:00:18.742Z,69.09
2023-04-17T05:03:12.020Z,69.00
2023-04-17T05:06:02.707Z,69.02
2023-04-17T05:09:01.304Z,69.19
2023-04-17T05:11:52.871Z,69.57
2023-04-17T05:14:42.548Z,69.96
2023-04-17T05:17:32.083Z,70.47
2023-04-17T05:20:21.920Z,70.22
2023-04-17T05:23:16.282Z,70.63
2023-04-17T05:26:07.448Z,70.66
2023-04-17T05:28:56.858Z,71.30
2023-04-17T05:31:49.701Z,72.02
2023-04-17T05:34:53.640Z,71.45
2023-04-17T05:37:46.822Z,71.29
2023-04-17T05:40:36.308Z,71.17
2023-04-17T05:43:26.896Z,71.34
2023-04-17T05:46:16.997Z,71.26
2023-04-17T05:49:06.482Z,71.19
2023-04-17T05:51:55.990Z,71.42
2023-04-17T05:54:45.569Z,71.60
2023-04-17T05:57:34.809Z,71.57
2023-04-17T06:00:26.682Z,72.09
2023-04-17T06:03:21.973Z,72.35
2023-04-17T06:06:18.187Z,72.47
2023-04-17T06:09:09.736Z,72.66
2023-04-17T06:12:00.388Z,72.68
2023-04-17T06:14:49.684Z,72.95
2023-04-17T06:17:43.814Z,72.98
2023-04-17T06:20:33.132Z,73.07
2023-04-17T06:23:25.026Z,73.01
2023-04-17T06:26:14.362Z,73.02
2023-04-17T06:29:04.983Z,73.31
2023-04-17T06:31:55.904Z,73.42
2023-04-17T06:37:47.616Z,74.29
2023-04-17T06:40:37.064Z,73.89
2023-04-17T06:43:28.711Z,74.29
2023-04-17T06:46:18.304Z,74.36
2023-04-17T06:49:07.764Z,74.40
2023-04-17T06:51:58.751Z,74.45
2023-04-17T06:54:48.103Z,74.35
2023-04-17T06:57:38.211Z,74.85
2023-04-17T07:00:27.672Z,74.93
2023-04-17T07:03:17.110Z,74.81
2023-04-17T07:06:06.977Z,74.85
2023-04-17T07:08:57.708Z,74.62
2023-04-17T07:11:46.843Z,74.40
2023-04-17T07:14:36.566Z,74.73
2023-04-17T07:17:27.352Z,74.83
2023-04-17T07:20:16.864Z,74.59
2023-04-17T07:23:06.110Z,74.52
2023-04-17T07:25:56.851Z,74.08
2023-04-17T07:28:46.206Z,73.93
2023-04-17T07:31:35.482Z,73.94
2023-04-17T07:34:25.321Z,74.22
2023-04-17T07:37:15.136Z,73.49
2023-04-17T07:40:09.059Z,73.58
2023-04-17T07:42:59.649Z,73.25
2023-04-17T07:45:49.183Z,73.82
2023-04-17T07:48:38.480Z,73.40
2023-04-17T07:51:27.918Z,73.21
2023-04-17T07:54:17.136Z,73.02
2023-04-17T07:57:08.442Z,73.09
2023-04-17T07:59:59.174Z,73.12
2023-04-17T08:02:48.808Z,72.99
2023-04-17T08:05:38.173Z,73.07
2023-04-17T08:08:27.598Z,73.71
2023-04-17T08:11:17.232Z,74.48
2023-04-17T08:14:06.530Z,70.13
2023-04-17T08:16:58.376Z,68.21
2023-04-17T08:19:47.665Z,67.06
2023-04-17T08:22:41.545Z,65.89
2023-04-17T08:25:31.225Z,60.90
2023-04-17T08:28:20.540Z,62.74
2023-04-17T08:31:11.017Z,58.14
2023-04-17T08:34:12.902Z,59.50
2023-04-17T08:37:03.921Z,57.87
2023-04-17T08:39:53.875Z,57.35
2023-04-17T08:42:44.453Z,55.99
2023-04-17T08:45:36.568Z,56.15
2023-04-17T08:48:26.307Z,56.82
2023-04-17T08:51:17.171Z,56.35
2023-04-17T08:54:06.921Z,54.83
2023-04-17T08:56:57.086Z,51.17
2023-04-17T08:59:47.291Z,50.99
2023-04-17T09:02:55.204Z,47.64
2023-04-17T09:05:46.739Z,49.80
2023-04-17T09:08:37.679Z,48.85
2023-04-17T09:11:27.544Z,48.76
2023-04-17T09:14:33.058Z,46.35
2023-04-17T09:17:23.059Z,46.08
2023-04-17T09:20:13.290Z,45.54
2023-04-17T09:23:05.878Z,43.98
2023-04-17T09:26:12.439Z,41.77
2023-04-17T09:29:08.813Z,41.28
2023-04-17T09:31:58.162Z,42.89
2023-04-17T09:34:47.421Z,42.52
2023-04-17T09:37:51.642Z,40.90
2023-04-17T09:40:45.304Z,41.22
2023-04-17T09:43:44.378Z,40.69
2023-04-17T09:46:39.345Z,40.27
2023-04-17T09:49:40.567Z,40.87
2023-04-17T09:52:31.096Z,42.25
2023-04-17T09:55:22.618Z,41.94
2023-04-17T09:58:12.438Z,41.75
2023-04-17T10:01:03.382Z,42.33
2023-04-17T10:03:52.895Z,42.91
2023-04-17T10:06:42.394Z,43.32
2023-04-17T10:09:31.999Z,44.25
2023-04-17T10:12:22.515Z,44.97
2023-04-17T10:15:16.030Z,45.86
2023-04-17T10:18:24.451Z,46.61
2023-04-17T10:21:25.503Z,47.56
2023-04-17T10:24:27.180Z,48.47
2023-04-17T10:27:48.638Z,50.00
2023-04-17T10:30:55.578Z,49.95
2023-04-17T10:33:52.004Z,50.27
2023-04-17T10:36:50.976Z,50.46
2023-04-17T10:40:01.790Z,50.81
2023-04-17T10:43:12.348Z,51.22
2023-04-17T10:46:07.412Z,51.55
2023-04-17T10:48:58.426Z,52.29
2023-04-17T10:51:47.594Z,52.52
2023-04-17T10:54:37.026Z,53.17
2023-04-17T10:58:15.360Z,53.48
2023-04-17T11:01:12.532Z,53.55
2023-04-17T11:04:03.276Z,53.81
2023-04-17T11:06:54.361Z,53.54
2023-04-17T11:09:52.365Z,53.22
2023-04-17T11:12:41.708Z,53.08
2023-04-17T11:15:32.565Z,53.58
2023-04-17T11:18:23.216Z,53.66
2023-04-17T11:21:15.059Z,53.09
2023-04-17T11:24:04.629Z,51.72
2023-04-17T11:26:54.135Z,51.10
2023-04-17T11:29:43.492Z,50.78
2023-04-17T11:32:37.790Z,49.46
2023-04-17T11:35:32.316Z,47.69
2023-04-17T11:38:24.476Z,47.05
2023-04-17T11:41:13.872Z,45.88
2023-04-17T11:44:03.506Z,45.59
2023-04-17T11:46:53.151Z,45.27
2023-04-17T11:49:42.468Z,44.21
2023-04-17T11:52:31.729Z,43.46
2023-04-17T11:55:22.414Z,42.69
2023-04-17T11:58:13.818Z,43.46
2023-04-17T12:01:06.624Z,42.40
2023-04-17T12:03:57.494Z,43.27
2023-04-17T12:06:46.909Z,43.55
2023-04-17T12:09:37.255Z,44.48
2023-04-17T12:12:29.234Z,45.22
2023-04-17T12:15:18.735Z,45.81
2023-04-17T12:18:09.474Z,46.23
2023-04-17T12:20:58.647Z,46.96
2023-04-17T12:23:51.379Z,47.81
2023-04-17T12:26:46.532Z,49.00
2023-04-17T12:32:32.066Z,49.93
2023-04-17T12:35:21.751Z,49.98
2023-04-17T12:38:11.041Z,50.23
2023-04-17T12:41:00.437Z,50.62
2023-04-17T12:43:49.646Z,50.51
2023-04-17T12:46:40.573Z,50.68
2023-04-17T12:49:30.015Z,50.98
2023-04-17T12:52:19.335Z,51.31
2023-04-17T12:55:10.104Z,51.28
2023-04-17T12:57:59.806Z,51.26
2023-04-17T13:00:49.084Z,51.53
2023-04-17T13:03:39.960Z,51.47
2023-04-17T13:06:29.446Z,51.75
2023-04-17T13:09:20.087Z,52.00
2023-04-17T13:12:09.529Z,52.17
2023-04-17T13:14:59.085Z,52.32
2023-04-17T13:17:48.587Z,52.14
2023-04-17T13:20:39.298Z,52.00
2023-04-17T13:23:28.546Z,52.07
2023-04-17T13:26:17.767Z,51.99
2023-04-17T13:29:06.906Z,52.11
2023-04-17T13:31:56.163Z,52.19
2023-04-17T13:34:45.467Z,52.22
2023-04-17T13:37:36.150Z,52.61
2023-04-17T13:40:25.384Z,52.99
2023-04-17T13:43:14.650Z,52.76
2023-04-17T13:46:04.241Z,52.77
2023-04-17T13:48:53.485Z,53.00
2023-04-17T13:51:42.800Z,52.79
2023-04-17T13:54:33.435Z,51.67
2023-04-17T13:57:22.601Z,52.01
2023-04-17T14:00:13.489Z,51.20
2023-04-17T14:03:03.385Z,48.68
2023-04-17T14:05:52.834Z,47.39
2023-04-17T14:08:44.264Z,47.46
2023-04-17T14:11:35.153Z,46.61
2023-04-17T14:14:24.337Z,46.50
2023-04-17T14:17:14.081Z,46.42
2023-04-17T14:20:03.813Z,46.85
2023-04-17T14:22:54.410Z,47.02
2023-04-17T14:25:43.810Z,47.55
2023-04-17T14:28:35.131Z,47.76
2023-04-17T14:31:24.446Z,48.36
2023-04-17T14:34:14.017Z,48.95
2023-04-17T14:37:03.369Z,49.42
2023-04-17T14:39:52.740Z,49.55
2023-04-17T14:42:53.526Z,49.54
2023-04-17T14:45:44.832Z,49.49
2023-04-17T14:48:41.075Z,49.62
2023-04-17T14:51:41.397Z,49.61
2023-04-17T14:54:30.626Z,49.74
2023-04-17T14:57:19.822Z,49.81
2023-04-17T15:00:11.120Z,50.11
2023-04-17T15:03:02.105Z,50.42
2023-04-17T15:05:52.445Z,50.83
2023-04-17T15:08:41.786Z,51.12
2023-04-17T15:11:31.014Z,51.58
2023-04-17T15:14:21.796Z,51.69
2023-04-17T15:17:11.009Z,52.31
2023-04-17T15:20:01.600Z,52.91
2023-04-17T15:22:52.677Z,53.16
2023-04-17T15:25:42.345Z,53.25
2023-04-17T15:28:33.154Z,53.52
2023-04-17T15:31:22.681Z,53.58
2023-04-17T15:34:13.634Z,53.44
2023-04-17T15:37:07.203Z,53.74
2023-04-17T15:39:56.948Z,52.54
2023-04-17T15:42:46.207Z,52.48
2023-04-17T15:45:35.729Z,51.86
2023-04-17T15:48:25.121Z,51.07
2023-04-17T15:51:14.595Z,50.88
2023-04-17T15:54:06.081Z,50.52
2023-04-17T15:56:56.201Z,50.15
2023-04-17T15:59:45.494Z,49.39
2023-04-17T16:02:35.006Z,49.08
2023-04-17T16:05:24.283Z,49.13
2023-04-17T16:08:13.533Z,49.78
2023-04-17T16:11:04.316Z,50.36
2023-04-17T16:13:53.626Z,51.14
2023-04-17T16:16:43.046Z,52.16
2023-04-17T16:19:32.690Z,53.20
2023-04-17T16:22:21.854Z,54.00
2023-04-17T16:25:12.755Z,55.82
2023-04-17T16:28:03.389Z,56.19
2023-04-17T16:30:52.713Z,56.67
2023-04-17T16:33:42.148Z,57.24
2023-04-17T16:36:33.196Z,57.53
2023-04-17T16:39:22.932Z,58.10
2023-04-17T16:42:12.286Z,58.33
2023-04-17T16:45:02.986Z,58.34
2023-04-17T16:47:52.241Z,58.49
2023-04-17T16:50:41.507Z,58.19
2023-04-17T16:53:30.773Z,57.82
2023-04-17T16:56:20.376Z,57.79
2023-04-17T16:59:09.726Z,57.80
2023-04-17T17:02:02.509Z,58.03
2023-04-17T17:04:51.703Z,58.23
2023-04-17T17:07:40.958Z,58.28
2023-04-17T17:10:30.623Z,58.44
2023-04-17T17:13:19.814Z,58.46
2023-04-17T17:16:09.053Z,58.80
2023-04-17T17:19:00.279Z,59.11
2023-04-17T17:21:50.023Z,59.35
2023-04-17T17:24:39.921Z,59.39
2023-04-17T17:27:29.246Z,59.58
2023-04-17T17:30:18.661Z,59.54
2023-04-17T17:33:08.001Z,59.72
2023-04-17T17:35:58.808Z,59.95
2023-04-17T17:38:50.953Z,59.98
2023-04-17T17:41:40.439Z,60.03
2023-04-17T17:44:29.710Z,60.19
2023-04-17T17:47:18.935Z,60.22
2023-04-17T17:50:09.885Z,60.58
2023-04-17T17:53:00.601Z,60.32
2023-04-17T17:55:52.772Z,60.48
2023-04-17T17:58:42.174Z,60.28
2023-04-17T18:01:31.610Z,60.30
2023-04-17T18:04:21.140Z,60.06
2023-04-17T18:07:10.712Z,59.98
2023-04-17T18:10:01.461Z,60.03
2023-04-17T18:12:50.793Z,59.93
2023-04-17T18:15:40.102Z,59.84
2023-04-17T18:18:29.388Z,59.80
2023-04-17T18:21:18.666Z,60.04
2023-04-17T18:24:09.135Z,59.96
2023-04-17T18:27:00.154Z,60.14
2023-04-17T18:29:49.552Z,60.28
2023-04-17T18:32:38.876Z,60.27
2023-04-17T18:35:28.145Z,60.49
2023-04-17T18:38:17.586Z,60.02
2023-04-17T18:41:06.976Z,59.76
2023-04-17T18:43:57.666Z,59.37
2023-04-17T18:46:47.876Z,58.59
2023-04-17T18:49:37.123Z,58.35
2023-04-17T18:52:26.340Z,58.76
2023-04-17T18:55:17.589Z,58.92
2023-04-17T18:58:07.389Z,59.27
2023-04-17T19:00:58.586Z,59.40
2023-04-17T19:03:47.837Z,59.67
2023-04-17T19:06:37.336Z,60.00
2023-04-17T19:09:26.832Z,60.75
2023-04-17T19:12:16.814Z,61.13
2023-04-17T19:15:07.971Z,62.00
2023-04-17T19:17:58.631Z,62.34
2023-04-17T19:20:48.053Z,62.72
2023-04-17T19:23:38.622Z,63.90
2023-04-17T19:26:27.967Z,64.00
2023-04-17T19:29:17.200Z,64.57
2023-04-17T19:32:07.055Z,65.89
2023-04-17T19:34:57.683Z,66.49
2023-04-17T19:37:46.931Z,67.14
2023-04-17T19:40:36.136Z,68.69
2023-04-17T19:43:25.439Z,68.69
2023-04-17T19:46:15.299Z,68.56
2023-04-17T19:49:04.880Z,69.00
2023-04-17T19:51:55.471Z,69.71
2023-04-17T19:54:46.292Z,69.98
2023-04-17T19:57:36.606Z,72.17
2023-04-17T20:00:26.084Z,72.13
2023-04-17T20:03:15.514Z,72.99
2023-04-17T20:06:05.065Z,72.71
2023-04-17T20:08:58.505Z,73.99
2023-04-17T20:11:47.763Z,74.69
2023-04-17T20:14:36.998Z,75.76
2023-04-17T20:17:26.609Z,75.50
2023-04-17T20:20:16.011Z,76.21
2023-04-17T20:23:05.311Z,75.87
2023-04-17T20:25:56.057Z,75.96
2023-04-17T20:28:45.348Z,76.59
2023-04-17T20:31:36.451Z,77.12
2023-04-17T20:34:26.815Z,77.53
2023-04-17T20:37:16.053Z,77.04
2023-04-17T20:40:10.723Z,77.96
2023-04-17T20:43:01.308Z,78.08
2023-04-17T20:45:51.490Z,78.96
2023-04-17T20:48:41.037Z,78.54
2023-04-17T20:51:30.449Z,79.17
2023-04-17T20:54:19.659Z,78.95
2023-04-17T20:57:08.912Z,78.41
2023-04-17T20:59:59.558Z,78.92
2023-04-17T21:02:48.864Z,78.47
2023-04-17T21:05:38.743Z,78.90
2023-04-17T21:08:28.161Z,79.36
2023-04-17T21:11:17.322Z,79.20
2023-04-17T21:14:06.541Z,78.90
2023-04-17T21:16:58.622Z,79.07
2023-04-17T21:19:47.861Z,78.84
2023-04-17T21:22:37.751Z,79.30
2023-04-17T21:25:27.773Z,79.76
2023-04-17T21:28:16.949Z,80.52
2023-04-17T21:31:10.375Z,80.53
2023-04-17T21:34:01.534Z,80.90
2023-04-17T21:36:50.988Z,80.90
2023-04-17T21:39:40.274Z,80.76
2023-04-17T21:42:29.672Z,81.09
2023-04-17T21:45:19.075Z,80.87
2023-04-17T21:48:08.492Z,81.44
2023-04-17T21:51:04.289Z,82.09
2023-04-17T21:53:53.502Z,81.95
2023-04-17T21:56:42.747Z,81.89
2023-04-17T21:59:32.279Z,81.58
2023-04-17T22:02:21.668Z,81.96
2023-04-17T22:05:11.734Z,82.08
2023-04-17T22:08:02.507Z,82.17
2023-04-17T22:10:53.033Z,82.16
2023-04-17T22:13:42.975Z,82.66
2023-04-17T22:16:32.468Z,82.32
2023-04-17T22:19:22.365Z,82.43
2023-04-17T22:22:11.754Z,82.16
2023-04-17T22:25:02.630Z,82.01
2023-04-17T22:27:52.697Z,81.73
2023-04-17T22:30:42.239Z,81.74
2023-04-17T22:33:31.738Z,81.77
2023-04-17T22:36:21.122Z,81.53
2023-04-17T22:39:10.483Z,81.48
2023-04-17T22:42:01.255Z,81.33
2023-04-17T22:44:50.714Z,81.32
2023-04-17T22:47:40.210Z,81.33
2023-04-17T22:50:30.644Z,81.42
2023-04-17T22:53:20.198Z,81.13
2023-04-17T22:56:13.969Z,81.97
2023-04-17T22:59:05.141Z,81.82
2023-04-17T23:01:54.874Z,81.61
2023-04-17T23:04:44.611Z,81.83
2023-04-17T23:07:34.488Z,82.34
2023-04-17T23:10:23.829Z,82.00
2023-04-17T23:13:13.229Z,81.38
2023-04-17T23:16:04.489Z,81.22
2023-04-17T23:18:54.117Z,81.06
2023-04-17T23:21:43.579Z,81.54
2023-04-17T23:24:35.746Z,81.47
2023-04-17T23:27:25.996Z,81.18
2023-04-17T23:30:16.364Z,81.21
2023-04-17T23:33:07.388Z,80.95
2023-04-17T23:35:56.680Z,80.83
2023-04-17T23:38:46.118Z,81.11
2023-04-17T23:41:35.713Z,81.00
2023-04-17T23:44:25.377Z,80.89
2023-04-17T23:47:15.271Z,80.53
2023-04-17T23:50:07.489Z,80.95
2023-04-17T23:52:57.017Z,80.74
2023-04-17T23:55:46.660Z,80.87
2023-04-17T23:58:35.914Z,80.88
